Time;durP1;ratioP1;P1;durP2;ratioP2;P2;SDS_P1;SDS_P2;PMS_P1;PMS_P2;Temp;Humidity;BMP_temperature;BMP_pressure;BME280_temperature;BME280_humidity;BME280_pressure;Samples;Min_cycle;Max_cycle;Signal;HPM_P1;HPM_P2
2023/05/22 00:01:41;;;;;;;11.37;8.83;;;;;;;13.84;100.00;98282.72;4921119;29;20252;-64
2023/05/22 00:04:08;;;;;;;10.87;8.70;;;;;;;13.77;100.00;98274.78;4919057;29;20229;-63
2023/05/22 00:06:35;;;;;;;12.03;8.90;;;;;;;13.84;100.00;98272.22;4921752;29;20238;-63
2023/05/22 00:09:02;;;;;;;16.53;9.67;;;;;;;13.80;100.00;98277.03;4917557;29;20282;-63
2023/05/22 00:11:29;;;;;;;11.03;8.93;;;;;;;13.80;100.00;98273.56;4918915;29;20304;-64
2023/05/22 00:13:55;;;;;;;16.03;10.03;;;;;;;13.77;100.00;98282.63;4919004;29;20239;-64
2023/05/22 00:16:23;;;;;;;14.30;10.53;;;;;;;13.72;100.00;98279.75;4922098;29;20247;-64
2023/05/22 00:18:50;;;;;;;14.50;9.60;;;;;;;13.67;100.00;98284.72;4922594;29;20695;-64
2023/05/22 00:21:17;;;;;;;12.67;9.33;;;;;;;13.74;100.00;98283.00;4916453;29;20245;-64
2023/05/22 00:23:44;;;;;;;12.57;9.33;;;;;;;13.78;100.00;98283.47;4921212;29;20656;-63
2023/05/22 00:26:14;;;;;;;14.57;9.53;;;;;;;13.69;100.00;98282.72;4919187;29;20232;-63
2023/05/22 00:28:41;;;;;;;13.83;10.40;;;;;;;13.67;100.00;98275.03;4922522;29;20262;-64
2023/05/22 00:31:08;;;;;;;14.53;9.87;;;;;;;13.68;100.00;98275.84;4906658;29;20233;-64
2023/05/22 00:33:36;;;;;;;11.23;9.33;;;;;;;13.75;100.00;98274.13;4919827;29;21859;-63
2023/05/22 00:36:03;;;;;;;13.33;9.60;;;;;;;13.74;100.00;98272.50;4916255;29;20720;-63
2023/05/22 00:38:31;;;;;;;15.33;9.77;;;;;;;13.76;100.00;98264.47;4904559;29;20296;-63
2023/05/22 00:40:58;;;;;;;12.17;9.60;;;;;;;13.72;100.00;98271.88;4918237;29;20228;-64
2023/05/22 00:43:25;;;;;;;13.53;10.23;;;;;;;13.72;100.00;98271.88;4922085;29;20228;-64
2023/05/22 00:45:52;;;;;;;11.77;9.67;;;;;;;13.73;100.00;98276.13;4921125;29;20240;-64
2023/05/22 00:48:19;;;;;;;13.83;10.17;;;;;;;13.72;100.00;98274.50;4904008;29;20240;-64
2023/05/22 00:50:48;;;;;;;12.13;10.07;;;;;;;13.79;100.00;98275.41;4920743;29;20315;-64
2023/05/22 00:53:15;;;;;;;12.77;9.13;;;;;;;13.82;100.00;98271.59;4900225;29;20236;-64
2023/05/22 00:55:44;;;;;;;12.27;10.07;;;;;;;13.80;100.00;98279.66;4901744;29;20900;-64
2023/05/22 00:58:14;;;;;;;15.50;10.43;;;;;;;13.80;100.00;98276.19;4916595;29;20243;-63
2023/05/22 01:00:44;;;;;;;13.73;9.93;;;;;;;13.81;100.00;98278.66;4903391;29;20771;-63
2023/05/22 01:03:10;;;;;;;14.27;10.43;;;;;;;13.82;100.00;98282.09;4897206;29;20233;-63
2023/05/22 01:05:38;;;;;;;13.27;9.70;;;;;;;13.91;100.00;98282.81;4919594;29;20230;-63
2023/05/22 01:08:09;;;;;;;16.63;10.33;;;;;;;13.84;100.00;98287.97;4898541;29;20234;-63
2023/05/22 01:10:39;;;;;;;13.57;10.07;;;;;;;13.76;100.00;98285.47;4902013;29;20234;-63
2023/05/22 01:13:14;;;;;;;11.40;9.40;;;;;;;13.73;100.00;98295.31;4899118;29;20314;-63
2023/05/22 01:15:46;;;;;;;12.53;9.23;;;;;;;13.79;100.00;98295.56;4920330;29;20235;-63
2023/05/22 01:18:20;;;;;;;13.60;9.47;;;;;;;13.74;100.00;98293.50;4922700;29;20278;-63
2023/05/22 01:20:52;;;;;;;15.67;10.50;;;;;;;13.75;100.00;98303.00;4901999;29;20710;-63
2023/05/22 01:23:58;;;;;;;12.93;10.37;;;;;;;13.72;100.00;98300.72;4906113;29;20711;-63
2023/05/22 01:26:43;;;;;;;14.70;9.70;;;;;;;13.64;100.00;98301.63;4911818;28;20297;-63
2023/05/22 01:29:30;;;;;;;13.10;9.70;;;;;;;13.62;100.00;98300.16;4924936;29;20229;-63
2023/05/22 01:32:01;;;;;;;15.10;10.90;;;;;;;13.56;100.00;98306.94;4907063;29;20248;-63
2023/05/22 01:34:35;;;;;;;13.40;10.00;;;;;;;13.55;100.00;98306.13;4926993;29;20318;-63
2023/05/22 01:37:03;;;;;;;15.00;10.63;;;;;;;13.57;100.00;98304.13;4900697;29;20238;-63
2023/05/22 01:39:36;;;;;;;14.43;9.67;;;;;;;13.53;100.00;98310.72;4910386;29;20224;-63
2023/05/22 01:42:04;;;;;;;13.00;10.60;;;;;;;13.62;100.00;98308.84;4921944;29;20230;-63
2023/05/22 01:44:34;;;;;;;13.10;10.07;;;;;;;13.60;100.00;98310.84;4905443;29;20307;-63
2023/05/22 01:47:04;;;;;;;14.60;10.23;;;;;;;13.62;100.00;98308.03;4924388;29;20220;-63
2023/05/22 01:49:36;;;;;;;16.30;11.33;;;;;;;13.69;100.00;98314.19;4891752;29;20220;-63
2023/05/22 01:52:11;;;;;;;14.40;11.17;;;;;;;13.71;100.00;98314.84;4907362;29;20616;-63
2023/05/22 01:54:42;;;;;;;14.27;10.47;;;;;;;13.86;100.00;98317.47;4926692;29;20268;-63
2023/05/22 01:57:16;;;;;;;13.80;10.27;;;;;;;13.86;100.00;98320.09;4907141;29;20675;-63
2023/05/22 01:59:47;;;;;;;13.63;10.73;;;;;;;13.85;100.00;98318.47;4910004;29;20233;-63
2023/05/22 02:02:17;;;;;;;14.00;10.53;;;;;;;13.87;100.00;98324.34;4897012;29;20247;-63
2023/05/22 02:04:48;;;;;;;13.07;11.70;;;;;;;13.96;100.00;98325.09;4924597;29;20504;-63
2023/05/22 02:07:17;;;;;;;16.30;11.20;;;;;;;13.92;100.00;98327.25;4902579;29;20380;-63
2023/05/22 02:09:46;;;;;;;13.40;10.53;;;;;;;14.02;100.00;98333.03;4928845;29;20758;-64
2023/05/22 02:12:14;;;;;;;13.97;10.67;;;;;;;14.04;100.00;98330.25;4910819;29;20426;-64
2023/05/22 02:14:42;;;;;;;13.20;10.30;;;;;;;14.02;100.00;98329.63;4929344;29;20239;-64
2023/05/22 02:17:09;;;;;;;13.77;10.93;;;;;;;14.00;100.00;98326.34;4926714;28;21055;-64
2023/05/22 02:19:37;;;;;;;12.30;10.40;;;;;;;13.98;100.00;98328.34;4913308;29;20233;-64
2023/05/22 02:22:04;;;;;;;14.63;11.03;;;;;;;14.01;100.00;98335.84;4911956;29;20245;-64
2023/05/22 02:24:36;;;;;;;14.30;11.27;;;;;;;14.03;100.00;98332.03;4913366;29;20229;-64
2023/05/22 02:27:03;;;;;;;12.87;9.80;;;;;;;14.05;100.00;98331.88;4903911;29;20616;-63
2023/05/22 02:29:35;;;;;;;15.67;11.47;;;;;;;14.11;100.00;98343.44;4928934;29;20237;-63
2023/05/22 02:32:01;;;;;;;13.00;10.70;;;;;;;14.13;100.00;98336.22;4903844;29;20694;-63
2023/05/22 02:34:36;;;;;;;17.40;11.07;;;;;;;14.14;100.00;98325.53;4913154;29;20233;-63
2023/05/22 02:37:04;;;;;;;12.47;10.43;;;;;;;14.15;100.00;98321.94;4926711;28;20225;-63
2023/05/22 02:39:34;;;;;;;13.20;10.53;;;;;;;14.11;100.00;98330.31;4928777;29;20235;-63
2023/05/22 02:42:01;;;;;;;15.80;11.37;;;;;;;14.13;100.00;98331.78;4899827;29;20248;-63
2023/05/22 02:44:53;;;;;;;11.83;10.03;;;;;;;14.13;100.00;98328.34;4929961;29;20243;-63
2023/05/22 02:47:20;;;;;;;15.13;10.80;;;;;;;14.02;100.00;98334.88;4925973;29;20240;-63
2023/05/22 02:49:47;;;;;;;16.47;10.80;;;;;;;13.98;100.00;98334.41;4902873;29;20315;-63
2023/05/22 02:52:16;;;;;;;15.97;10.73;;;;;;;13.87;100.00;98329.59;4927156;29;20254;-63
2023/05/22 02:54:43;;;;;;;13.93;11.37;;;;;;;13.83;100.00;98333.56;4913065;29;20235;-63
2023/05/22 02:57:09;;;;;;;13.97;10.60;;;;;;;13.76;100.00;98330.84;4917334;29;20241;-63
2023/05/22 02:59:37;;;;;;;13.97;11.00;;;;;;;13.71;100.00;98327.94;4906108;29;20236;-63
2023/05/22 03:04:46;;;;;;;16.07;11.23;;;;;;;13.63;100.00;98323.59;5170653;23;20274;-63
2023/05/22 03:07:12;;;;;;;13.53;11.00;;;;;;;13.57;100.00;98321.69;4902811;29;20227;-63
2023/05/22 03:09:40;;;;;;;12.70;10.37;;;;;;;13.53;100.00;98323.84;4909610;29;20250;-63
2023/05/22 03:12:08;;;;;;;13.73;11.10;;;;;;;13.46;100.00;98320.28;4905059;29;20712;-63
2023/05/22 03:14:35;;;;;;;16.00;12.03;;;;;;;13.44;100.00;98319.66;4905937;29;20232;-63
2023/05/22 03:17:02;;;;;;;14.07;11.40;;;;;;;13.37;100.00;98318.69;4885799;29;20282;-63
2023/05/22 03:19:35;;;;;;;18.77;11.67;;;;;;;13.39;100.00;98317.53;4884820;29;20234;-63
2023/05/22 03:22:01;;;;;;;18.00;11.30;;;;;;;13.38;100.00;98317.69;4873856;29;20238;-63
2023/05/22 03:24:35;;;;;;;17.47;11.50;;;;;;;13.37;100.00;98316.06;4892321;29;20337;-63
2023/05/22 03:27:03;;;;;;;15.27;11.17;;;;;;;13.37;100.00;98316.91;4886441;29;20306;-63
2023/05/22 03:29:39;;;;;;;16.47;12.07;;;;;;;13.33;100.00;98320.88;4882232;29;20301;-63
2023/05/22 03:32:06;;;;;;;14.47;11.60;;;;;;;13.28;100.00;98318.75;5103593;23;20217;-63
2023/05/22 03:34:35;;;;;;;14.87;11.93;;;;;;;13.25;100.00;98324.34;4900942;29;20237;-63
2023/05/22 03:37:03;;;;;;;17.63;12.93;;;;;;;13.23;100.00;98322.91;4897879;29;20230;-63
2023/05/22 03:39:35;;;;;;;16.90;12.13;;;;;;;13.20;100.00;98329.34;4899697;29;20224;-63
2023/05/22 03:42:13;;;;;;;15.43;11.43;;;;;;;13.26;100.00;98322.56;4897743;29;20252;-63
2023/05/22 03:44:40;;;;;;;17.93;12.60;;;;;;;13.24;100.00;98319.28;4878174;29;20260;-63
2023/05/22 03:47:06;;;;;;;23.23;13.67;;;;;;;13.20;100.00;98318.84;4882974;29;20231;-63
2023/05/22 03:49:34;;;;;;;23.03;16.43;;;;;;;13.20;100.00;98323.25;4899691;29;20304;-63
2023/05/22 03:52:01;;;;;;;36.90;22.97;;;;;;;13.22;100.00;98323.91;4898022;29;20238;-63
2023/05/22 03:54:31;;;;;;;27.20;20.23;;;;;;;13.22;100.00;98310.78;4901361;29;20606;-63
2023/05/22 03:56:58;;;;;;;21.57;13.00;;;;;;;13.24;100.00;98317.50;4881215;29;21188;-63
2023/05/22 03:59:26;;;;;;;15.00;12.20;;;;;;;13.24;100.00;98312.25;4890901;29;20738;-63
2023/05/22 04:01:52;;;;;;;17.33;13.20;;;;;;;13.29;100.00;98314.34;4890080;29;20612;-63
2023/05/22 04:04:19;;;;;;;15.15;12.43;;;;;;;13.40;100.00;98310.47;4898732;29;20780;-63
2023/05/22 04:06:45;;;;;;;15.40;11.03;;;;;;;13.45;100.00;98320.47;4890201;29;20229;-63
2023/05/22 04:09:13;;;;;;;15.90;11.20;;;;;;;13.54;100.00;98317.59;4887800;29;20236;-63
2023/05/22 04:11:41;;;;;;;17.07;10.73;;;;;;;13.56;100.00;98320.84;4889828;29;20249;-63
2023/05/22 04:14:07;;;;;;;31.27;13.40;;;;;;;13.65;100.00;98316.38;4880758;29;20585;-63
2023/05/22 04:16:35;;;;;;;14.10;10.43;;;;;;;13.70;100.00;98319.28;4899410;29;20305;-63
2023/05/22 04:19:02;;;;;;;15.93;9.63;;;;;;;13.73;100.00;98318.09;4898135;29;20246;-63
2023/05/22 04:21:29;;;;;;;13.17;10.30;;;;;;;13.78;100.00;98320.19;4883254;29;20299;-63
2023/05/22 04:23:55;;;;;;;14.77;11.23;;;;;;;13.85;100.00;98319.28;4887475;29;20241;-63
2023/05/22 04:26:23;;;;;;;12.63;10.60;;;;;;;13.96;100.00;98323.25;4885335;29;20235;-63
2023/05/22 04:28:49;;;;;;;13.93;10.20;;;;;;;14.04;100.00;98322.38;4899259;29;20236;-63
2023/05/22 04:31:16;;;;;;;14.70;10.50;;;;;;;14.11;100.00;98322.47;4851051;29;1080777;-63
2023/05/22 04:33:47;;;;;;;14.53;10.67;;;;;;;14.19;100.00;98322.38;4900862;29;20264;-64
2023/05/22 04:36:13;;;;;;;15.83;10.13;;;;;;;14.28;100.00;98325.72;4899950;29;20743;-64
2023/05/22 04:38:40;;;;;;;13.10;10.03;;;;;;;14.39;100.00;98319.19;4886804;29;20688;-64
2023/05/22 04:41:07;;;;;;;15.87;9.50;;;;;;;14.45;100.00;98329.75;4898058;29;20725;-64
2023/05/22 04:43:37;;;;;;;14.13;10.43;;;;;;;14.52;100.00;98329.84;4905328;29;20292;-63
2023/05/22 04:46:04;;;;;;;14.37;9.97;;;;;;;14.59;100.00;98327.28;4896723;29;20295;-63
2023/05/22 04:48:30;;;;;;;12.97;10.20;;;;;;;14.75;100.00;98326.31;4889984;29;20258;-63
2023/05/22 04:51:01;;;;;;;10.90;9.50;;;;;;;14.78;100.00;98336.47;4887133;29;20238;-63
2023/05/22 04:53:29;;;;;;;13.73;9.93;;;;;;;14.89;100.00;98337.78;4899216;29;20241;-63
2023/05/22 04:55:56;;;;;;;11.53;9.37;;;;;;;15.00;100.00;98336.47;4897768;29;20251;-63
2023/05/22 04:58:23;;;;;;;12.73;9.77;;;;;;;15.04;100.00;98335.09;4905982;29;20258;-63
2023/05/22 05:00:51;;;;;;;13.37;10.20;;;;;;;15.11;100.00;98343.06;4900539;29;20322;-63
2023/05/22 05:03:17;;;;;;;12.43;9.83;;;;;;;15.18;100.00;98342.09;4898132;29;20240;-63
2023/05/22 05:05:44;;;;;;;14.17;10.37;;;;;;;15.27;100.00;98347.25;4906804;29;20234;-63
2023/05/22 05:08:12;;;;;;;12.07;9.33;;;;;;;15.44;100.00;98346.00;4895734;29;20232;-63
2023/05/22 05:10:39;;;;;;;13.70;10.03;;;;;;;15.49;100.00;98348.88;4906386;29;20234;-63
2023/05/22 05:13:08;;;;;;;11.90;9.13;;;;;;;15.61;100.00;98356.25;4887191;29;20326;-63
2023/05/22 05:15:38;;;;;;;11.70;9.13;;;;;;;15.70;100.00;98356.91;4899814;29;20705;-63
2023/05/22 05:18:04;;;;;;;14.47;10.10;;;;;;;15.79;100.00;98356.59;4896269;29;20242;-64
2023/05/22 05:20:31;;;;;;;12.83;9.77;;;;;;;15.95;100.00;98349.41;4899417;29;20236;-64
2023/05/22 05:22:58;;;;;;;11.37;9.27;;;;;;;16.10;100.00;98354.59;4903241;29;20598;-64
2023/05/22 05:25:25;;;;;;;11.13;8.73;;;;;;;16.21;100.00;98355.84;4900964;29;20303;-64
2023/05/22 05:27:52;;;;;;;10.73;9.27;;;;;;;16.35;100.00;98356.75;4889892;29;20223;-64
2023/05/22 05:30:20;;;;;;;10.43;9.00;;;;;;;16.49;100.00;98352.34;4904126;29;20236;-64
2023/05/22 05:33:19;;;;;;;10.87;8.70;;;;;;;16.67;100.00;98357.91;4861339;29;20238;-64
2023/05/22 05:35:59;;;;;;;16.10;12.13;;;;;;;16.82;100.00;98357.75;4890566;29;20226;-64
2023/05/22 05:38:25;;;;;;;12.63;9.83;;;;;;;16.92;100.00;98360.03;4902419;29;21270;-64
2023/05/22 05:40:55;;;;;;;11.40;9.47;;;;;;;17.00;100.00;98355.59;4900787;29;20229;-64
2023/05/22 05:43:24;;;;;;;11.30;8.70;;;;;;;16.96;100.00;98355.16;4898977;29;20260;-64
2023/05/22 05:45:51;;;;;;;12.57;9.30;;;;;;;16.91;100.00;98357.56;4902893;29;20241;-64
2023/05/22 05:48:17;;;;;;;11.63;10.43;;;;;;;16.89;100.00;98360.44;4900916;29;20233;-64
2023/05/22 05:50:48;;;;;;;10.97;9.57;;;;;;;16.91;100.00;98362.84;4908480;29;20243;-64
2023/05/22 05:53:15;;;;;;;13.37;9.57;;;;;;;16.89;100.00;98360.44;4902003;29;20588;-64
2023/05/22 05:55:47;;;;;;;13.63;10.10;;;;;;;16.88;100.00;98363.25;4903031;29;20743;-64
2023/05/22 05:58:16;;;;;;;12.53;9.67;;;;;;;16.85;100.00;98374.19;4892167;29;20252;-64
2023/05/22 06:01:00;;;;;;;10.60;8.93;;;;;;;16.83;100.00;98377.03;4882918;29;20239;-64
2023/05/22 06:03:26;;;;;;;13.67;9.37;;;;;;;16.80;100.00;98377.41;4894066;29;20236;-64
2023/05/22 06:06:07;;;;;;;11.30;8.83;;;;;;;16.81;100.00;98374.56;4899784;29;20594;-64
2023/05/22 06:08:53;;;;;;;12.53;9.53;;;;;;;16.86;100.00;98386.34;4903291;29;20323;-64
2023/05/22 06:11:26;;;;;;;12.57;9.00;;;;;;;16.95;100.00;98385.16;4900986;29;20239;-64
2023/05/22 06:13:55;;;;;;;11.70;9.60;;;;;;;17.10;100.00;98390.31;4900231;29;20231;-64
2023/05/22 06:16:22;;;;;;;11.50;9.13;;;;;;;17.23;100.00;98398.25;4883793;29;20243;-64
2023/05/22 06:18:51;;;;;;;13.47;9.63;;;;;;;17.25;100.00;98398.88;4894787;29;20235;-64
2023/05/22 06:21:19;;;;;;;15.57;9.50;;;;;;;17.24;100.00;98404.34;4886054;29;20228;-64
2023/05/22 06:23:46;;;;;;;14.27;10.63;;;;;;;17.19;100.00;98399.66;4904470;29;20233;-64
2023/05/22 06:26:13;;;;;;;10.03;8.80;;;;;;;17.25;100.00;98400.69;4885853;29;20228;-64
2023/05/22 06:28:42;;;;;;;11.13;9.67;;;;;;;17.28;100.00;98402.94;4901877;29;20597;-64
2023/05/22 06:31:10;;;;;;;11.50;9.40;;;;;;;17.38;100.00;98407.81;4901701;29;20265;-64
2023/05/22 06:33:41;;;;;;;11.43;9.27;;;;;;;17.45;100.00;98411.28;4886783;29;20316;-64
2023/05/22 06:36:10;;;;;;;11.80;9.43;;;;;;;17.51;100.00;98409.66;4899303;29;20244;-64
2023/05/22 06:38:38;;;;;;;13.90;10.47;;;;;;;17.71;100.00;98402.56;4903794;29;20236;-64
2023/05/22 06:41:06;;;;;;;14.67;10.80;;;;;;;17.90;100.00;98401.97;4881398;29;20297;-64
2023/05/22 06:43:33;;;;;;;11.97;9.83;;;;;;;18.18;100.00;98408.88;4902354;29;20320;-64
2023/05/22 06:46:06;;;;;;;10.30;9.20;;;;;;;18.49;100.00;98404.75;4891356;29;20352;-64
2023/05/22 06:48:50;;;;;;;12.57;9.13;;;;;;;18.67;97.12;98402.25;4888290;29;20236;-64
2023/05/22 06:51:23;;;;;;;12.03;9.37;;;;;;;18.99;94.37;98412.94;4905686;29;20719;-64
2023/05/22 06:53:52;;;;;;;12.00;8.93;;;;;;;19.34;90.53;98414.38;4893467;29;20315;-64
2023/05/22 06:56:23;;;;;;;12.80;9.10;;;;;;;19.64;91.62;98419.03;4889111;29;20237;-64
2023/05/22 06:58:57;;;;;;;13.57;10.00;;;;;;;19.87;88.64;98410.53;4898582;29;20234;-64
2023/05/22 07:01:33;;;;;;;12.90;9.37;;;;;;;20.17;86.04;98414.34;4888286;29;20241;-64
2023/05/22 07:04:10;;;;;;;13.70;10.17;;;;;;;20.26;84.77;98417.53;4889921;29;20239;-64
2023/05/22 07:06:47;;;;;;;13.60;9.33;;;;;;;20.07;82.60;98417.53;4900815;29;20252;-64
2023/05/22 07:09:14;;;;;;;17.27;10.13;;;;;;;19.98;80.26;98421.47;4888391;29;20387;-64
2023/05/22 07:11:42;;;;;;;15.80;9.47;;;;;;;20.18;79.92;98422.06;4884577;29;20241;-64
2023/05/22 07:14:11;;;;;;;16.33;9.53;;;;;;;20.33;79.65;98428.88;4899700;29;20372;-64
2023/05/22 07:16:39;;;;;;;12.50;8.93;;;;;;;20.60;79.13;98423.28;4902243;29;20295;-64
2023/05/22 07:19:07;;;;;;;11.80;8.73;;;;;;;20.94;76.97;98421.09;4906118;29;20327;-64
2023/05/22 07:21:35;;;;;;;12.57;8.43;;;;;;;20.96;78.03;98413.72;4891111;29;20290;-64
2023/05/22 07:24:07;;;;;;;11.83;9.00;;;;;;;20.77;80.14;98419.03;4905102;29;20265;-64
2023/05/22 07:26:35;;;;;;;10.57;8.17;;;;;;;20.90;77.57;98423.38;4907778;29;20321;-64
2023/05/22 07:29:06;;;;;;;10.20;8.37;;;;;;;20.92;78.71;98423.16;4902892;29;20237;-64
2023/05/22 07:31:34;;;;;;;9.73;8.70;;;;;;;21.06;76.92;98429.09;4900077;29;20288;-64
2023/05/22 07:34:01;;;;;;;10.43;8.37;;;;;;;21.09;77.66;98426.81;4900572;29;20237;-64
2023/05/22 07:36:30;;;;;;;13.47;8.87;;;;;;;20.56;82.59;98428.25;4902222;29;20246;-64
2023/05/22 07:38:58;;;;;;;11.67;8.57;;;;;;;20.44;81.30;98427.34;4905251;29;20265;-64
2023/05/22 07:41:26;;;;;;;12.67;9.13;;;;;;;20.00;84.57;98427.38;4902903;29;20246;-64
2023/05/22 07:43:52;;;;;;;11.73;9.20;;;;;;;20.11;84.58;98423.19;4891300;29;20643;-64
2023/05/22 07:46:24;;;;;;;14.33;9.80;;;;;;;19.77;87.10;98428.72;4900202;29;20241;-64
2023/05/22 07:48:58;;;;;;;11.90;9.23;;;;;;;19.76;85.37;98435.06;4897748;29;20708;-64
2023/05/22 07:51:24;;;;;;;13.30;9.67;;;;;;;19.69;85.07;98436.94;4905970;29;20228;-64
2023/05/22 07:53:51;;;;;;;11.57;9.60;;;;;;;19.79;86.60;98436.44;4902071;29;20241;-64
2023/05/22 07:56:19;;;;;;;18.30;9.67;;;;;;;19.70;86.53;98435.91;4904252;29;20299;-64
2023/05/22 07:58:48;;;;;;;10.93;9.47;;;;;;;20.08;85.79;98443.00;4901475;29;20239;-64
2023/05/22 08:01:18;;;;;;;12.20;9.37;;;;;;;19.94;84.61;98439.63;4901153;29;20242;-64
2023/05/22 08:03:44;;;;;;;11.47;9.73;;;;;;;20.34;84.68;98443.75;4902364;29;20245;-64
2023/05/22 08:06:14;;;;;;;14.50;10.07;;;;;;;20.42;81.62;98443.47;4898475;29;21137;-64
2023/05/22 08:08:40;;;;;;;10.37;8.50;;;;;;;20.84;79.55;98447.34;4903765;29;20269;-64
2023/05/22 08:11:10;;;;;;;14.30;10.63;;;;;;;20.94;76.77;98447.63;4898860;29;20666;-64
2023/05/22 08:13:37;;;;;;;13.37;10.13;;;;;;;20.92;77.34;98447.03;4903037;29;20236;-64
2023/05/22 08:16:07;;;;;;;13.17;9.50;;;;;;;20.70;78.70;98447.47;4896451;29;20321;-64
2023/05/22 08:18:34;;;;;;;13.83;9.60;;;;;;;20.84;80.00;98448.13;4903298;29;21274;-64
2023/05/22 08:21:01;;;;;;;14.50;10.87;;;;;;;20.47;79.80;98448.13;4901979;29;20238;-64
2023/05/22 08:23:28;;;;;;;13.27;10.13;;;;;;;20.68;78.61;98446.03;4902700;29;20232;-64
2023/05/22 08:25:55;;;;;;;11.83;9.77;;;;;;;20.93;78.88;98444.16;4899958;29;20238;-64
2023/05/22 08:28:21;;;;;;;19.23;9.23;;;;;;;21.34;78.41;98444.44;4899821;29;20240;-64
2023/05/22 08:30:50;;;;;;;11.57;9.67;;;;;;;21.60;75.63;98439.78;4902035;29;20239;-64
2023/05/22 08:33:18;;;;;;;10.43;8.60;;;;;;;21.86;77.06;98437.78;4898695;29;20251;-64
2023/05/22 08:35:45;;;;;;;14.50;10.23;;;;;;;21.96;75.10;98443.34;4901657;29;20236;-64
2023/05/22 08:38:11;;;;;;;15.07;9.20;;;;;;;22.18;73.36;98437.47;4895894;29;20221;-64
2023/05/22 08:40:39;;;;;;;11.03;9.30;;;;;;;22.35;73.27;98439.41;4900838;29;20316;-64
2023/05/22 08:43:06;;;;;;;11.77;9.50;;;;;;;22.31;72.11;98440.91;4896870;29;21111;-64
2023/05/22 08:45:35;;;;;;;13.13;8.87;;;;;;;22.39;72.81;98445.88;4902404;29;20332;-64
2023/05/22 08:48:05;;;;;;;12.80;9.83;;;;;;;22.52;71.38;98435.00;4899294;29;20236;-64
2023/05/22 08:50:32;;;;;;;12.70;10.43;;;;;;;22.59;70.22;98431.44;4902057;29;20253;-64
2023/05/22 08:53:01;;;;;;;12.03;9.17;;;;;;;22.91;69.98;98431.81;4896067;29;20226;-64
2023/05/22 08:55:28;;;;;;;11.73;9.40;;;;;;;22.96;71.30;98436.44;4886566;29;20241;-64
2023/05/22 08:57:56;;;;;;;13.23;9.30;;;;;;;23.10;69.59;98435.09;4901591;29;20240;-64
2023/05/22 09:00:23;;;;;;;10.57;9.10;;;;;;;23.20;69.45;98439.00;4903441;29;20239;-64
2023/05/22 09:02:51;;;;;;;12.00;10.10;;;;;;;23.00;71.24;98438.38;4901018;29;20242;-65
2023/05/22 09:05:19;;;;;;;11.63;10.43;;;;;;;23.48;68.50;98432.88;4887633;29;20244;-64
2023/05/22 09:07:47;;;;;;;15.47;10.83;;;;;;;22.91;68.19;98434.47;4903795;29;20602;-64
2023/05/22 09:10:14;;;;;;;11.37;10.17;;;;;;;23.20;67.77;98433.69;4896390;29;21538;-64
2023/05/22 09:13:03;;;;;;;13.13;10.57;;;;;;;22.62;68.97;98431.78;4903033;29;20231;-65
2023/05/22 09:15:30;;;;;;;12.33;9.63;;;;;;;22.64;69.25;98436.84;4895425;29;20266;-65
2023/05/22 09:17:57;;;;;;;12.57;8.97;;;;;;;22.83;69.80;98426.84;4899275;29;20234;-65
2023/05/22 09:20:26;;;;;;;10.70;9.60;;;;;;;22.77;69.89;98430.47;4901110;29;20318;-65
2023/05/22 09:22:52;;;;;;;13.53;11.27;;;;;;;22.88;68.12;98429.59;4893760;29;20240;-64
2023/05/22 09:25:19;;;;;;;14.23;10.07;;;;;;;22.36;71.24;98433.03;4895941;29;20230;-64
2023/05/22 09:27:46;;;;;;;12.13;10.63;;;;;;;22.29;71.32;98433.16;4901346;29;20233;-63
2023/05/22 09:30:16;;;;;;;13.10;10.73;;;;;;;21.82;72.25;98434.75;4898166;29;20825;-63
2023/05/22 09:32:43;;;;;;;14.67;11.37;;;;;;;21.82;72.18;98429.44;4899616;29;20238;-63
2023/05/22 09:35:10;;;;;;;15.03;10.23;;;;;;;21.89;74.29;98425.88;4897144;29;20671;-63
2023/05/22 09:37:39;;;;;;;14.63;10.43;;;;;;;22.20;73.18;98422.09;4898773;29;20241;-64
2023/05/22 09:40:07;;;;;;;17.23;12.07;;;;;;;22.14;73.44;98423.00;4900378;29;20240;-64
2023/05/22 09:42:34;;;;;;;19.60;11.00;;;;;;;22.29;70.90;98422.53;4901626;29;20332;-63
2023/05/22 09:45:04;;;;;;;14.63;11.70;;;;;;;22.46;70.39;98427.19;4895031;29;20821;-63
2023/05/22 09:47:31;;;;;;;16.20;11.37;;;;;;;22.35;71.26;98426.09;4900841;29;20333;-63
2023/05/22 09:49:58;;;;;;;14.50;11.37;;;;;;;22.42;71.52;98421.47;4897588;29;20242;-63
2023/05/22 09:52:28;;;;;;;15.17;11.07;;;;;;;22.52;72.79;98418.25;4899941;29;20248;-63
2023/05/22 09:54:57;;;;;;;16.13;10.53;;;;;;;22.81;72.30;98415.63;4893924;29;20237;-63
2023/05/22 09:57:25;;;;;;;13.97;10.87;;;;;;;22.77;70.73;98422.50;4898419;29;20634;-64
2023/05/22 09:59:56;;;;;;;14.63;11.07;;;;;;;22.76;71.39;98420.88;4901029;29;20236;-63
2023/05/22 10:02:24;;;;;;;13.37;10.93;;;;;;;22.95;72.35;98413.53;4902138;29;20240;-63
2023/05/22 10:04:52;;;;;;;19.67;11.47;;;;;;;22.70;71.07;98418.13;4898634;29;20243;-63
2023/05/22 10:07:22;;;;;;;16.07;10.63;;;;;;;22.91;71.71;98417.69;4896785;29;20297;-66
2023/05/22 10:09:54;;;;;;;15.47;10.80;;;;;;;22.85;70.67;98419.44;4903298;29;20241;-60
2023/05/22 10:12:24;;;;;;;14.60;11.87;;;;;;;22.85;69.72;98416.78;4901181;29;20240;-65
2023/05/22 10:14:51;;;;;;;13.30;11.70;;;;;;;22.73;71.27;98421.34;4898869;29;20307;-64
2023/05/22 10:17:19;;;;;;;13.60;11.43;;;;;;;22.88;69.18;98410.19;4898939;29;20733;-65
2023/05/22 10:19:46;;;;;;;15.23;11.50;;;;;;;22.87;69.68;98409.38;4900362;29;20241;-65
2023/05/22 10:22:19;;;;;;;15.50;11.90;;;;;;;22.71;69.42;98402.94;4897896;29;20236;-65
2023/05/22 10:24:47;;;;;;;16.77;10.73;;;;;;;22.91;69.31;98393.75;4900234;29;20234;-65
2023/05/22 10:27:14;;;;;;;16.27;11.13;;;;;;;23.16;69.34;98398.72;4896995;29;20249;-65
2023/05/22 10:29:47;;;;;;;13.33;10.33;;;;;;;23.25;67.76;98399.19;4904851;29;20238;-65
2023/05/22 10:32:20;;;;;;;14.13;10.53;;;;;;;23.43;67.36;98403.50;4902499;29;20320;-64
2023/05/22 10:35:04;;;;;;;11.53;10.27;;;;;;;23.17;65.34;98396.88;4889134;29;20244;-61
2023/05/22 10:37:44;;;;;;;11.67;10.03;;;;;;;23.44;65.24;98387.25;4900147;29;20245;-64
2023/05/22 10:40:14;;;;;;;14.80;10.63;;;;;;;23.48;62.37;98398.25;4900236;29;20282;-64
2023/05/22 10:42:41;;;;;;;12.43;9.93;;;;;;;23.68;63.62;98394.31;4903238;29;20783;-64
2023/05/22 10:45:10;;;;;;;15.00;10.87;;;;;;;23.86;62.74;98394.03;4901229;29;20233;-64
2023/05/22 10:47:37;;;;;;;13.47;9.67;;;;;;;23.87;62.91;98394.84;4904228;29;20282;-64
2023/05/22 10:50:07;;;;;;;17.60;10.53;;;;;;;23.69;62.80;98391.38;4897624;29;20222;-64
2023/05/22 10:52:34;;;;;;;11.37;9.67;;;;;;;23.75;61.39;98381.63;4903865;29;20956;-66
2023/05/22 10:55:01;;;;;;;12.03;9.90;;;;;;;23.67;60.79;98388.16;4899231;29;20255;-64
2023/05/22 10:57:33;;;;;;;12.67;9.87;;;;;;;23.89;60.11;98382.88;4904157;29;20235;-64
2023/05/22 11:00:12;;;;;;;11.83;9.67;;;;;;;24.10;60.68;98369.09;4903151;29;20309;-64
2023/05/22 11:02:42;;;;;;;14.07;10.63;;;;;;;24.17;60.63;98370.50;4902200;29;20300;-64
2023/05/22 11:05:36;;;;;;;14.27;10.53;;;;;;;24.37;59.23;98369.16;4902728;29;20229;-64
2023/05/22 11:08:34;;;;;;;13.43;10.30;;;;;;;24.47;58.76;98368.47;4900755;29;20234;-64
2023/05/22 11:11:11;;;;;;;15.53;10.70;;;;;;;24.43;58.81;98373.50;4900423;29;20263;-64
2023/05/22 11:13:38;;;;;;;12.63;11.33;;;;;;;24.42;57.57;98371.06;4901418;29;20229;-64
2023/05/22 11:16:08;;;;;;;12.17;10.87;;;;;;;24.47;60.07;98366.63;4898271;29;20234;-64
2023/05/22 11:18:34;;;;;;;11.43;9.83;;;;;;;24.80;60.69;98368.63;4903495;29;20241;-64
2023/05/22 11:21:02;;;;;;;11.57;10.07;;;;;;;24.95;54.45;98373.31;4898452;29;20320;-64
2023/05/22 11:23:34;;;;;;;12.03;10.73;;;;;;;24.91;54.08;98368.47;4902575;29;20241;-64
2023/05/22 11:26:21;;;;;;;11.07;9.73;;;;;;;24.86;53.09;98363.06;4903230;29;20238;-64
2023/05/22 11:28:52;;;;;;;11.47;10.03;;;;;;;24.87;54.27;98361.22;4903927;29;20240;-64
2023/05/22 11:31:22;;;;;;;12.43;10.37;;;;;;;24.81;54.57;98359.56;4899464;29;20315;-64